sensor_id;sensor_type;location;lat;lon;timestamp;temperature;humidity
19258;DHT22;9763;48.780;9.212;2023-10-08T00:03:32;18.00;47.40
19258;DHT22;9763;48.780;9.212;2023-10-08T00:07:14;18.00;47.40
19258;DHT22;9763;48.780;9.212;2023-10-08T00:10:56;18.00;47.50
19258;DHT22;9763;48.780;9.212;2023-10-08T00:14:45;18.00;47.60
19258;DHT22;9763;48.780;9.212;2023-10-08T00:18:29;18.00;47.60
19258;DHT22;9763;48.780;9.212;2023-10-08T00:22:13;18.00;47.70
19258;DHT22;9763;48.780;9.212;2023-10-08T00:25:58;18.00;47.80
19258;DHT22;9763;48.780;9.212;2023-10-08T00:29:46;17.90;47.80
19258;DHT22;9763;48.780;9.212;2023-10-08T00:33:28;17.90;47.90
19258;DHT22;9763;48.780;9.212;2023-10-08T00:37:11;17.80;47.90
19258;DHT22;9763;48.780;9.212;2023-10-08T00:40:55;17.80;47.90
19258;DHT22;9763;48.780;9.212;2023-10-08T00:44:38;17.80;48.00
19258;DHT22;9763;48.780;9.212;2023-10-08T00:48:29;17.90;48.20
19258;DHT22;9763;48.780;9.212;2023-10-08T00:52:16;17.90;48.30
19258;DHT22;9763;48.780;9.212;2023-10-08T00:56:10;17.90;48.20
19258;DHT22;9763;48.780;9.212;2023-10-08T00:59:59;17.90;48.20
19258;DHT22;9763;48.780;9.212;2023-10-08T01:03:45;18.00;48.40
19258;DHT22;9763;48.780;9.212;2023-10-08T01:07:27;18.00;48.40
19258;DHT22;9763;48.780;9.212;2023-10-08T01:11:18;18.00;48.30
19258;DHT22;9763;48.780;9.212;2023-10-08T01:15:03;18.00;48.40
19258;DHT22;9763;48.780;9.212;2023-10-08T01:18:58;18.00;48.40
19258;DHT22;9763;48.780;9.212;2023-10-08T01:22:42;18.00;48.40
19258;DHT22;9763;48.780;9.212;2023-10-08T01:26:24;17.90;48.20
19258;DHT22;9763;48.780;9.212;2023-10-08T01:30:07;17.90;48.20
19258;DHT22;9763;48.780;9.212;2023-10-08T01:33:58;17.90;48.10
19258;DHT22;9763;48.780;9.212;2023-10-08T01:37:42;17.90;48.10
19258;DHT22;9763;48.780;9.212;2023-10-08T01:41:25;17.80;48.00
19258;DHT22;9763;48.780;9.212;2023-10-08T01:45:10;17.80;48.00
19258;DHT22;9763;48.780;9.212;2023-10-08T01:48:58;17.70;48.00
19258;DHT22;9763;48.780;9.212;2023-10-08T01:52:46;17.70;48.00
19258;DHT22;9763;48.780;9.212;2023-10-08T01:56:28;17.70;48.00
19258;DHT22;9763;48.780;9.212;2023-10-08T02:00:11;17.70;48.10
19258;DHT22;9763;48.780;9.212;2023-10-08T02:03:54;17.70;48.20
19258;DHT22;9763;48.780;9.212;2023-10-08T02:07:37;17.70;48.20
19258;DHT22;9763;48.780;9.212;2023-10-08T02:11:20;17.60;48.10
19258;DHT22;9763;48.780;9.212;2023-10-08T02:15:03;17.60;48.10
19258;DHT22;9763;48.780;9.212;2023-10-08T02:18:47;17.60;48.10
19258;DHT22;9763;48.780;9.212;2023-10-08T02:22:31;17.60;48.10
19258;DHT22;9763;48.780;9.212;2023-10-08T02:26:14;17.50;48.10
19258;DHT22;9763;48.780;9.212;2023-10-08T02:29:57;17.40;48.10
19258;DHT22;9763;48.780;9.212;2023-10-08T02:33:40;17.40;48.10
19258;DHT22;9763;48.780;9.212;2023-10-08T02:37:21;17.30;48.10
19258;DHT22;9763;48.780;9.212;2023-10-08T02:41:04;17.30;48.20
19258;DHT22;9763;48.780;9.212;2023-10-08T02:44:48;17.20;48.20
19258;DHT22;9763;48.780;9.212;2023-10-08T02:48:33;17.20;48.20
19258;DHT22;9763;48.780;9.212;2023-10-08T02:52:16;17.10;48.20
19258;DHT22;9763;48.780;9.212;2023-10-08T02:56:01;17.10;48.20
19258;DHT22;9763;48.780;9.212;2023-10-08T02:59:53;17.00;48.10
19258;DHT22;9763;48.780;9.212;2023-10-08T03:03:38;17.00;48.30
19258;DHT22;9763;48.780;9.212;2023-10-08T03:07:21;16.90;48.30
19258;DHT22;9763;48.780;9.212;2023-10-08T03:11:13;16.90;48.30
19258;DHT22;9763;48.780;9.212;2023-10-08T03:14:58;16.90;48.40
19258;DHT22;9763;48.780;9.212;2023-10-08T03:18:54;16.90;48.50
19258;DHT22;9763;48.780;9.212;2023-10-08T03:22:38;16.80;48.50
19258;DHT22;9763;48.780;9.212;2023-10-08T03:26:26;16.70;48.50
19258;DHT22;9763;48.780;9.212;2023-10-08T03:30:14;16.80;48.70
19258;DHT22;9763;48.780;9.212;2023-10-08T03:33:58;16.70;48.60
19258;DHT22;9763;48.780;9.212;2023-10-08T03:37:40;16.70;48.70
19258;DHT22;9763;48.780;9.212;2023-10-08T03:41:26;16.60;48.70
19258;DHT22;9763;48.780;9.212;2023-10-08T03:45:10;16.60;48.80
19258;DHT22;9763;48.780;9.212;2023-10-08T03:48:54;16.60;48.90
19258;DHT22;9763;48.780;9.212;2023-10-08T03:52:39;16.50;49.00
19258;DHT22;9763;48.780;9.212;2023-10-08T03:56:25;18.20;50.40
19258;DHT22;9763;48.780;9.212;2023-10-08T04:00:12;16.50;49.00
19258;DHT22;9763;48.780;9.212;2023-10-08T04:04:00;16.50;49.10
19258;DHT22;9763;48.780;9.212;2023-10-08T04:07:43;16.40;49.10
19258;DHT22;9763;48.780;9.212;2023-10-08T04:11:46;16.40;49.10
19258;DHT22;9763;48.780;9.212;2023-10-08T04:15:38;16.40;49.20
19258;DHT22;9763;48.780;9.212;2023-10-08T04:19:22;16.30;49.10
19258;DHT22;9763;48.780;9.212;2023-10-08T04:23:09;16.30;49.10
19258;DHT22;9763;48.780;9.212;2023-10-08T04:26:59;16.30;49.20
19258;DHT22;9763;48.780;9.212;2023-10-08T04:30:43;16.30;49.30
19258;DHT22;9763;48.780;9.212;2023-10-08T04:34:28;16.20;49.20
19258;DHT22;9763;48.780;9.212;2023-10-08T04:38:12;16.20;49.40
19258;DHT22;9763;48.780;9.212;2023-10-08T04:41:54;16.10;49.40
19258;DHT22;9763;48.780;9.212;2023-10-08T04:45:39;16.10;49.40
19258;DHT22;9763;48.780;9.212;2023-10-08T04:49:22;16.10;49.50
19258;DHT22;9763;48.780;9.212;2023-10-08T04:53:09;16.10;49.70
19258;DHT22;9763;48.780;9.212;2023-10-08T04:56:57;16.10;49.70
19258;DHT22;9763;48.780;9.212;2023-10-08T05:00:40;16.10;49.90
19258;DHT22;9763;48.780;9.212;2023-10-08T05:04:34;16.10;49.80
19258;DHT22;9763;48.780;9.212;2023-10-08T05:08:29;16.10;49.90
19258;DHT22;9763;48.780;9.212;2023-10-08T05:12:13;16.10;49.90
19258;DHT22;9763;48.780;9.212;2023-10-08T05:16:02;16.10;49.90
19258;DHT22;9763;48.780;9.212;2023-10-08T05:20:00;16.00;50.00
19258;DHT22;9763;48.780;9.212;2023-10-08T05:24:00;15.90;50.00
19258;DHT22;9763;48.780;9.212;2023-10-08T05:27:54;16.00;50.10
19258;DHT22;9763;48.780;9.212;2023-10-08T05:31:39;16.00;50.10
19258;DHT22;9763;48.780;9.212;2023-10-08T05:35:34;16.00;50.20
19258;DHT22;9763;48.780;9.212;2023-10-08T05:39:30;16.00;50.20
19258;DHT22;9763;48.780;9.212;2023-10-08T05:43:21;16.00;50.30
19258;DHT22;9763;48.780;9.212;2023-10-08T05:47:20;16.00;50.40
19258;DHT22;9763;48.780;9.212;2023-10-08T05:51:19;16.00;50.50
19258;DHT22;9763;48.780;9.212;2023-10-08T05:55:14;16.00;50.50
19258;DHT22;9763;48.780;9.212;2023-10-08T05:59:05;16.00;50.50
19258;DHT22;9763;48.780;9.212;2023-10-08T06:03:00;16.00;50.60
19258;DHT22;9763;48.780;9.212;2023-10-08T06:06:50;16.10;50.80
19258;DHT22;9763;48.780;9.212;2023-10-08T06:10:52;16.10;50.80
19258;DHT22;9763;48.780;9.212;2023-10-08T06:14:41;16.10;50.80
19258;DHT22;9763;48.780;9.212;2023-10-08T06:18:42;16.10;50.80
19258;DHT22;9763;48.780;9.212;2023-10-08T06:22:24;16.10;50.90
19258;DHT22;9763;48.780;9.212;2023-10-08T06:26:06;16.10;51.00
19258;DHT22;9763;48.780;9.212;2023-10-08T06:29:55;16.20;51.10
19258;DHT22;9763;48.780;9.212;2023-10-08T06:33:38;16.20;51.10
19258;DHT22;9763;48.780;9.212;2023-10-08T06:37:23;16.20;51.20
19258;DHT22;9763;48.780;9.212;2023-10-08T06:41:07;16.20;51.00
19258;DHT22;9763;48.780;9.212;2023-10-08T06:44:51;16.20;51.40
19258;DHT22;9763;48.780;9.212;2023-10-08T06:48:38;16.30;51.50
19258;DHT22;9763;48.780;9.212;2023-10-08T06:52:24;16.30;51.60
19258;DHT22;9763;48.780;9.212;2023-10-08T06:56:07;16.40;51.60
19258;DHT22;9763;48.780;9.212;2023-10-08T06:59:52;16.40;51.60
19258;DHT22;9763;48.780;9.212;2023-10-08T07:03:36;16.50;51.70
19258;DHT22;9763;48.780;9.212;2023-10-08T07:07:19;16.60;52.00
19258;DHT22;9763;48.780;9.212;2023-10-08T07:11:03;16.70;52.20
19258;DHT22;9763;48.780;9.212;2023-10-08T07:14:47;16.80;52.40
19258;DHT22;9763;48.780;9.212;2023-10-08T07:18:29;17.00;52.40
19258;DHT22;9763;48.780;9.212;2023-10-08T07:22:15;17.10;52.80
19258;DHT22;9763;48.780;9.212;2023-10-08T07:26:05;17.30;52.60
19258;DHT22;9763;48.780;9.212;2023-10-08T07:29:52;17.40;52.80
19258;DHT22;9763;48.780;9.212;2023-10-08T07:33:38;17.70;53.20
19258;DHT22;9763;48.780;9.212;2023-10-08T07:37:20;17.80;53.60
19258;DHT22;9763;48.780;9.212;2023-10-08T07:41:02;18.10;53.90
19258;DHT22;9763;48.780;9.212;2023-10-08T07:44:47;18.40;53.80
19258;DHT22;9763;48.780;9.212;2023-10-08T07:48:31;18.70;53.60
19258;DHT22;9763;48.780;9.212;2023-10-08T07:52:14;18.90;53.40
19258;DHT22;9763;48.780;9.212;2023-10-08T07:56:00;19.10;53.40
19258;DHT22;9763;48.780;9.212;2023-10-08T07:59:50;19.20;53.30
19258;DHT22;9763;48.780;9.212;2023-10-08T08:03:36;19.40;53.20
19258;DHT22;9763;48.780;9.212;2023-10-08T08:07:19;19.60;53.00
19258;DHT22;9763;48.780;9.212;2023-10-08T08:11:00;19.60;52.90
19258;DHT22;9763;48.780;9.212;2023-10-08T08:14:48;19.70;53.00
19258;DHT22;9763;48.780;9.212;2023-10-08T08:18:31;19.80;53.00
19258;DHT22;9763;48.780;9.212;2023-10-08T08:22:14;19.90;52.90
19258;DHT22;9763;48.780;9.212;2023-10-08T08:26:02;20.00;52.80
19258;DHT22;9763;48.780;9.212;2023-10-08T08:29:53;20.10;52.60
19258;DHT22;9763;48.780;9.212;2023-10-08T08:33:36;20.20;53.20
19258;DHT22;9763;48.780;9.212;2023-10-08T08:37:33;20.50;53.30
19258;DHT22;9763;48.780;9.212;2023-10-08T08:41:16;20.70;53.40
19258;DHT22;9763;48.780;9.212;2023-10-08T08:45:02;21.00;53.80
19258;DHT22;9763;48.780;9.212;2023-10-08T08:48:50;21.40;54.80
19258;DHT22;9763;48.780;9.212;2023-10-08T08:52:34;21.90;56.10
19258;DHT22;9763;48.780;9.212;2023-10-08T08:56:17;22.60;57.50
19258;DHT22;9763;48.780;9.212;2023-10-08T09:00:01;23.40;57.90
19258;DHT22;9763;48.780;9.212;2023-10-08T09:03:51;24.20;57.10
19258;DHT22;9763;48.780;9.212;2023-10-08T09:07:35;24.90;55.70
19258;DHT22;9763;48.780;9.212;2023-10-08T09:11:17;25.40;54.20
19258;DHT22;9763;48.780;9.212;2023-10-08T09:15:02;25.70;53.60
19258;DHT22;9763;48.780;9.212;2023-10-08T09:18:47;26.20;53.70
19258;DHT22;9763;48.780;9.212;2023-10-08T09:22:30;26.70;53.90
19258;DHT22;9763;48.780;9.212;2023-10-08T09:26:12;27.30;54.40
19258;DHT22;9763;48.780;9.212;2023-10-08T09:29:56;28.00;54.50
19258;DHT22;9763;48.780;9.212;2023-10-08T09:33:41;28.70;53.50
19258;DHT22;9763;48.780;9.212;2023-10-08T09:37:23;28.10;50.30
19258;DHT22;9763;48.780;9.212;2023-10-08T09:41:06;29.40;49.50
19258;DHT22;9763;48.780;9.212;2023-10-08T09:44:49;29.50;48.40
19258;DHT22;9763;48.780;9.212;2023-10-08T09:48:34;29.70;47.90
19258;DHT22;9763;48.780;9.212;2023-10-08T09:52:24;29.60;46.20
19258;DHT22;9763;48.780;9.212;2023-10-08T09:56:18;29.40;44.80
19258;DHT22;9763;48.780;9.212;2023-10-08T10:00:02;29.10;44.60
19258;DHT22;9763;48.780;9.212;2023-10-08T10:03:46;28.80;44.10
19258;DHT22;9763;48.780;9.212;2023-10-08T10:07:31;28.40;43.80
19258;DHT22;9763;48.780;9.212;2023-10-08T10:11:13;28.00;43.90
19258;DHT22;9763;48.780;9.212;2023-10-08T10:14:56;27.70;44.30
19258;DHT22;9763;48.780;9.212;2023-10-08T10:18:43;27.50;44.50
19258;DHT22;9763;48.780;9.212;2023-10-08T10:22:29;27.40;44.20
19258;DHT22;9763;48.780;9.212;2023-10-08T10:26:24;27.20;44.20
19258;DHT22;9763;48.780;9.212;2023-10-08T10:30:09;27.10;43.80
19258;DHT22;9763;48.780;9.212;2023-10-08T10:33:56;27.00;44.20
19258;DHT22;9763;48.780;9.212;2023-10-08T10:37:40;26.90;44.20
19258;DHT22;9763;48.780;9.212;2023-10-08T10:41:32;26.80;44.20
19258;DHT22;9763;48.780;9.212;2023-10-08T10:45:15;26.80;44.50
19258;DHT22;9763;48.780;9.212;2023-10-08T10:49:16;26.70;44.50
19258;DHT22;9763;48.780;9.212;2023-10-08T10:53:03;26.70;44.80
19258;DHT22;9763;48.780;9.212;2023-10-08T10:56:52;26.80;45.10
19258;DHT22;9763;48.780;9.212;2023-10-08T11:00:44;26.90;45.30
19258;DHT22;9763;48.780;9.212;2023-10-08T11:04:37;27.10;45.60
19258;DHT22;9763;48.780;9.212;2023-10-08T11:08:29;27.30;45.50
19258;DHT22;9763;48.780;9.212;2023-10-08T11:12:16;27.50;45.00
19258;DHT22;9763;48.780;9.212;2023-10-08T11:16:05;27.50;44.60
19258;DHT22;9763;48.780;9.212;2023-10-08T11:19:49;27.60;44.20
19258;DHT22;9763;48.780;9.212;2023-10-08T11:23:35;27.60;44.00
19258;DHT22;9763;48.780;9.212;2023-10-08T11:27:22;27.60;43.90
19258;DHT22;9763;48.780;9.212;2023-10-08T11:31:11;27.60;44.40
19258;DHT22;9763;48.780;9.212;2023-10-08T11:34:55;27.70;44.40
19258;DHT22;9763;48.780;9.212;2023-10-08T11:38:42;27.70;44.30
19258;DHT22;9763;48.780;9.212;2023-10-08T11:42:28;27.80;44.60
19258;DHT22;9763;48.780;9.212;2023-10-08T11:46:26;28.00;44.90
19258;DHT22;9763;48.780;9.212;2023-10-08T11:50:13;28.20;44.50
19258;DHT22;9763;48.780;9.212;2023-10-08T11:53:59;28.30;44.10
19258;DHT22;9763;48.780;9.212;2023-10-08T11:57:43;28.30;43.50
19258;DHT22;9763;48.780;9.212;2023-10-08T12:01:26;28.20;43.30
19258;DHT22;9763;48.780;9.212;2023-10-08T12:05:08;28.10;43.40
19258;DHT22;9763;48.780;9.212;2023-10-08T12:09:00;28.10;43.70
19258;DHT22;9763;48.780;9.212;2023-10-08T12:12:53;28.10;44.00
19258;DHT22;9763;48.780;9.212;2023-10-08T12:16:35;28.30;44.40
19258;DHT22;9763;48.780;9.212;2023-10-08T12:20:19;28.40;44.10
19258;DHT22;9763;48.780;9.212;2023-10-08T12:24:06;28.50;43.80
19258;DHT22;9763;48.780;9.212;2023-10-08T12:27:53;28.60;43.70
19258;DHT22;9763;48.780;9.212;2023-10-08T12:31:37;28.70;43.50
19258;DHT22;9763;48.780;9.212;2023-10-08T12:35:20;28.80;43.20
19258;DHT22;9763;48.780;9.212;2023-10-08T12:39:06;28.70;42.60
19258;DHT22;9763;48.780;9.212;2023-10-08T12:42:55;28.70;42.30
19258;DHT22;9763;48.780;9.212;2023-10-08T12:46:38;28.70;42.20
19258;DHT22;9763;48.780;9.212;2023-10-08T12:50:24;28.60;42.00
19258;DHT22;9763;48.780;9.212;2023-10-08T12:54:11;28.50;41.90
19258;DHT22;9763;48.780;9.212;2023-10-08T12:58:02;28.40;41.90
19258;DHT22;9763;48.780;9.212;2023-10-08T13:01:50;28.40;42.10
19258;DHT22;9763;48.780;9.212;2023-10-08T13:05:35;28.40;42.10
19258;DHT22;9763;48.780;9.212;2023-10-08T13:09:19;28.50;41.80
19258;DHT22;9763;48.780;9.212;2023-10-08T13:13:01;28.50;41.80
19258;DHT22;9763;48.780;9.212;2023-10-08T13:16:43;28.40;41.70
19258;DHT22;9763;48.780;9.212;2023-10-08T13:20:26;28.40;41.60
19258;DHT22;9763;48.780;9.212;2023-10-08T13:24:14;28.30;41.30
19258;DHT22;9763;48.780;9.212;2023-10-08T13:28:02;28.20;41.40
19258;DHT22;9763;48.780;9.212;2023-10-08T13:31:45;28.10;41.40
19258;DHT22;9763;48.780;9.212;2023-10-08T13:35:28;28.00;41.40
19258;DHT22;9763;48.780;9.212;2023-10-08T13:39:10;27.90;41.40
19258;DHT22;9763;48.780;9.212;2023-10-08T13:42:59;27.90;41.50
19258;DHT22;9763;48.780;9.212;2023-10-08T13:46:42;27.80;41.40
19258;DHT22;9763;48.780;9.212;2023-10-08T13:50:30;27.70;41.30
19258;DHT22;9763;48.780;9.212;2023-10-08T13:54:12;27.70;41.30
19258;DHT22;9763;48.780;9.212;2023-10-08T13:57:55;27.60;41.20
19258;DHT22;9763;48.780;9.212;2023-10-08T14:01:38;27.60;41.20
19258;DHT22;9763;48.780;9.212;2023-10-08T14:05:26;27.60;41.10
19258;DHT22;9763;48.780;9.212;2023-10-08T14:09:10;27.50;40.80
19258;DHT22;9763;48.780;9.212;2023-10-08T14:12:53;27.50;40.90
19258;DHT22;9763;48.780;9.212;2023-10-08T14:16:35;27.50;40.90
19258;DHT22;9763;48.780;9.212;2023-10-08T14:20:17;27.50;40.90
19258;DHT22;9763;48.780;9.212;2023-10-08T14:24:04;27.50;40.70
19258;DHT22;9763;48.780;9.212;2023-10-08T14:27:56;27.40;40.60
19258;DHT22;9763;48.780;9.212;2023-10-08T14:31:44;27.40;40.40
19258;DHT22;9763;48.780;9.212;2023-10-08T14:35:30;27.30;40.40
19258;DHT22;9763;48.780;9.212;2023-10-08T14:39:42;27.20;40.40
19258;DHT22;9763;48.780;9.212;2023-10-08T14:43:42;27.20;40.40
19258;DHT22;9763;48.780;9.212;2023-10-08T14:47:24;27.10;40.40
19258;DHT22;9763;48.780;9.212;2023-10-08T14:51:06;27.00;40.10
19258;DHT22;9763;48.780;9.212;2023-10-08T14:54:51;27.00;40.30
19258;DHT22;9763;48.780;9.212;2023-10-08T14:58:33;27.10;40.30
19258;DHT22;9763;48.780;9.212;2023-10-08T15:02:15;26.80;40.20
19258;DHT22;9763;48.780;9.212;2023-10-08T15:05:58;26.80;40.20
19258;DHT22;9763;48.780;9.212;2023-10-08T15:09:40;26.70;40.30
19258;DHT22;9763;48.780;9.212;2023-10-08T15:13:24;26.60;40.30
19258;DHT22;9763;48.780;9.212;2023-10-08T15:17:08;26.60;40.50
19258;DHT22;9763;48.780;9.212;2023-10-08T15:20:51;26.60;40.90
19258;DHT22;9763;48.780;9.212;2023-10-08T15:24:34;26.50;41.20
19258;DHT22;9763;48.780;9.212;2023-10-08T15:28:17;26.50;41.50
19258;DHT22;9763;48.780;9.212;2023-10-08T15:32:00;26.50;41.70
19258;DHT22;9763;48.780;9.212;2023-10-08T15:35:42;26.40;41.70
19258;DHT22;9763;48.780;9.212;2023-10-08T15:39:25;26.40;41.80
19258;DHT22;9763;48.780;9.212;2023-10-08T15:43:08;26.30;41.80
19258;DHT22;9763;48.780;9.212;2023-10-08T15:46:52;26.30;42.00
19258;DHT22;9763;48.780;9.212;2023-10-08T15:50:35;26.20;42.10
19258;DHT22;9763;48.780;9.212;2023-10-08T15:54:17;26.10;42.40
19258;DHT22;9763;48.780;9.212;2023-10-08T15:58:01;26.10;42.60
19258;DHT22;9763;48.780;9.212;2023-10-08T16:01:43;26.00;42.80
19258;DHT22;9763;48.780;9.212;2023-10-08T16:05:26;25.90;42.90
19258;DHT22;9763;48.780;9.212;2023-10-08T16:09:10;25.80;43.00
19258;DHT22;9763;48.780;9.212;2023-10-08T16:12:52;25.70;43.40
19258;DHT22;9763;48.780;9.212;2023-10-08T16:16:35;25.60;43.60
19258;DHT22;9763;48.780;9.212;2023-10-08T16:20:18;25.50;43.80
19258;DHT22;9763;48.780;9.212;2023-10-08T16:24:02;25.40;43.90
19258;DHT22;9763;48.780;9.212;2023-10-08T16:27:47;25.30;44.00
19258;DHT22;9763;48.780;9.212;2023-10-08T16:31:31;25.10;44.20
19258;DHT22;9763;48.780;9.212;2023-10-08T16:35:20;25.00;44.20
19258;DHT22;9763;48.780;9.212;2023-10-08T16:39:04;24.80;44.10
19258;DHT22;9763;48.780;9.212;2023-10-08T16:42:53;24.70;44.30
19258;DHT22;9763;48.780;9.212;2023-10-08T16:46:34;24.50;44.20
19258;DHT22;9763;48.780;9.212;2023-10-08T16:50:16;24.40;44.20
19258;DHT22;9763;48.780;9.212;2023-10-08T16:53:58;24.30;44.30
19258;DHT22;9763;48.780;9.212;2023-10-08T16:57:40;24.10;44.30
19258;DHT22;9763;48.780;9.212;2023-10-08T17:01:25;23.90;44.30
19258;DHT22;9763;48.780;9.212;2023-10-08T17:05:08;23.70;44.50
19258;DHT22;9763;48.780;9.212;2023-10-08T17:08:54;23.60;44.60
19258;DHT22;9763;48.780;9.212;2023-10-08T17:12:37;23.40;44.60
19258;DHT22;9763;48.780;9.212;2023-10-08T17:16:19;23.30;44.70
19258;DHT22;9763;48.780;9.212;2023-10-08T17:20:03;23.20;44.80
19258;DHT22;9763;48.780;9.212;2023-10-08T17:23:49;23.10;44.90
19258;DHT22;9763;48.780;9.212;2023-10-08T17:27:31;22.90;44.80
19258;DHT22;9763;48.780;9.212;2023-10-08T17:31:14;22.90;45.00
19258;DHT22;9763;48.780;9.212;2023-10-08T17:34:56;22.80;45.00
19258;DHT22;9763;48.780;9.212;2023-10-08T17:38:40;22.60;45.00
19258;DHT22;9763;48.780;9.212;2023-10-08T17:42:22;22.50;45.20
19258;DHT22;9763;48.780;9.212;2023-10-08T17:46:05;22.50;45.40
19258;DHT22;9763;48.780;9.212;2023-10-08T17:49:48;22.40;45.40
19258;DHT22;9763;48.780;9.212;2023-10-08T17:53:31;22.30;45.50
19258;DHT22;9763;48.780;9.212;2023-10-08T17:57:17;22.30;45.60
19258;DHT22;9763;48.780;9.212;2023-10-08T18:00:59;22.10;46.60
19258;DHT22;9763;48.780;9.212;2023-10-08T18:04:46;22.10;46.30
19258;DHT22;9763;48.780;9.212;2023-10-08T18:08:28;22.00;47.40
19258;DHT22;9763;48.780;9.212;2023-10-08T18:12:18;22.00;47.00
19258;DHT22;9763;48.780;9.212;2023-10-08T18:16:00;21.90;46.80
19258;DHT22;9763;48.780;9.212;2023-10-08T18:19:45;21.90;46.70
19258;DHT22;9763;48.780;9.212;2023-10-08T18:23:29;21.90;46.70
19258;DHT22;9763;48.780;9.212;2023-10-08T18:27:13;21.80;46.60
19258;DHT22;9763;48.780;9.212;2023-10-08T18:30:56;21.80;46.60
19258;DHT22;9763;48.780;9.212;2023-10-08T18:34:39;21.70;46.70
19258;DHT22;9763;48.780;9.212;2023-10-08T18:38:22;21.70;46.70
19258;DHT22;9763;48.780;9.212;2023-10-08T18:42:05;21.60;46.70
19258;DHT22;9763;48.780;9.212;2023-10-08T18:45:48;21.50;46.90
19258;DHT22;9763;48.780;9.212;2023-10-08T18:49:33;21.50;47.00
19258;DHT22;9763;48.780;9.212;2023-10-08T18:53:17;21.30;47.00
19258;DHT22;9763;48.780;9.212;2023-10-08T18:56:59;21.20;47.00
19258;DHT22;9763;48.780;9.212;2023-10-08T19:00:44;21.10;47.20
19258;DHT22;9763;48.780;9.212;2023-10-08T19:04:26;21.00;47.20
19258;DHT22;9763;48.780;9.212;2023-10-08T19:08:10;21.00;47.40
19258;DHT22;9763;48.780;9.212;2023-10-08T19:11:52;20.90;47.60
19258;DHT22;9763;48.780;9.212;2023-10-08T19:15:35;20.80;47.50
19258;DHT22;9763;48.780;9.212;2023-10-08T19:19:20;21.10;47.90
19258;DHT22;9763;48.780;9.212;2023-10-08T19:23:02;20.70;47.70
19258;DHT22;9763;48.780;9.212;2023-10-08T19:26:47;20.70;47.80
19258;DHT22;9763;48.780;9.212;2023-10-08T19:30:31;20.70;47.90
19258;DHT22;9763;48.780;9.212;2023-10-08T19:34:14;20.60;47.90
19258;DHT22;9763;48.780;9.212;2023-10-08T19:37:57;20.60;48.00
19258;DHT22;9763;48.780;9.212;2023-10-08T19:41:39;20.50;48.00
19258;DHT22;9763;48.780;9.212;2023-10-08T19:45:23;20.50;48.10
19258;DHT22;9763;48.780;9.212;2023-10-08T19:49:06;20.40;48.10
19258;DHT22;9763;48.780;9.212;2023-10-08T19:52:54;20.40;48.10
19258;DHT22;9763;48.780;9.212;2023-10-08T19:56:36;20.30;48.20
19258;DHT22;9763;48.780;9.212;2023-10-08T20:00:18;20.30;48.40
19258;DHT22;9763;48.780;9.212;2023-10-08T20:04:08;20.20;48.40
19258;DHT22;9763;48.780;9.212;2023-10-08T20:07:50;20.20;48.70
19258;DHT22;9763;48.780;9.212;2023-10-08T20:11:35;20.10;48.60
19258;DHT22;9763;48.780;9.212;2023-10-08T20:15:18;20.10;48.80
19258;DHT22;9763;48.780;9.212;2023-10-08T20:19:03;20.00;48.80
19258;DHT22;9763;48.780;9.212;2023-10-08T20:22:48;20.00;48.80
19258;DHT22;9763;48.780;9.212;2023-10-08T20:26:32;20.00;49.00
19258;DHT22;9763;48.780;9.212;2023-10-08T20:30:15;19.90;48.90
19258;DHT22;9763;48.780;9.212;2023-10-08T20:33:59;19.80;48.90
19258;DHT22;9763;48.780;9.212;2023-10-08T20:37:42;19.80;49.00
19258;DHT22;9763;48.780;9.212;2023-10-08T20:41:25;19.70;49.10
19258;DHT22;9763;48.780;9.212;2023-10-08T20:45:10;19.80;49.50
19258;DHT22;9763;48.780;9.212;2023-10-08T20:48:54;19.60;49.40
19258;DHT22;9763;48.780;9.212;2023-10-08T20:52:36;19.50;49.50
19258;DHT22;9763;48.780;9.212;2023-10-08T20:56:19;19.50;49.80
19258;DHT22;9763;48.780;9.212;2023-10-08T21:00:03;19.40;49.60
19258;DHT22;9763;48.780;9.212;2023-10-08T21:03:48;19.40;49.80
19258;DHT22;9763;48.780;9.212;2023-10-08T21:07:30;19.40;49.80
19258;DHT22;9763;48.780;9.212;2023-10-08T21:11:13;19.30;49.90
19258;DHT22;9763;48.780;9.212;2023-10-08T21:14:57;19.30;50.00
19258;DHT22;9763;48.780;9.212;2023-10-08T21:18:40;19.30;50.10
19258;DHT22;9763;48.780;9.212;2023-10-08T21:22:24;19.20;50.20
19258;DHT22;9763;48.780;9.212;2023-10-08T21:26:08;19.10;50.10
19258;DHT22;9763;48.780;9.212;2023-10-08T21:29:52;19.10;50.20
19258;DHT22;9763;48.780;9.212;2023-10-08T21:33:34;19.10;50.30
19258;DHT22;9763;48.780;9.212;2023-10-08T21:37:17;19.10;50.40
19258;DHT22;9763;48.780;9.212;2023-10-08T21:40:59;19.10;50.50
19258;DHT22;9763;48.780;9.212;2023-10-08T21:44:41;19.00;50.60
19258;DHT22;9763;48.780;9.212;2023-10-08T21:48:24;19.00;50.60
19258;DHT22;9763;48.780;9.212;2023-10-08T21:52:06;19.00;50.70
19258;DHT22;9763;48.780;9.212;2023-10-08T21:55:50;18.90;50.70
19258;DHT22;9763;48.780;9.212;2023-10-08T21:59:32;18.90;50.80
19258;DHT22;9763;48.780;9.212;2023-10-08T22:03:14;18.90;50.80
19258;DHT22;9763;48.780;9.212;2023-10-08T22:06:56;18.80;50.80
19258;DHT22;9763;48.780;9.212;2023-10-08T22:10:42;18.80;51.00
19258;DHT22;9763;48.780;9.212;2023-10-08T22:14:26;18.80;51.00
19258;DHT22;9763;48.780;9.212;2023-10-08T22:18:14;18.80;51.80
19258;DHT22;9763;48.780;9.212;2023-10-08T22:22:09;18.70;51.10
19258;DHT22;9763;48.780;9.212;2023-10-08T22:25:53;18.70;51.30
19258;DHT22;9763;48.780;9.212;2023-10-08T22:29:37;18.60;51.20
19258;DHT22;9763;48.780;9.212;2023-10-08T22:33:20;18.60;51.40
19258;DHT22;9763;48.780;9.212;2023-10-08T22:37:06;18.60;51.50
19258;DHT22;9763;48.780;9.212;2023-10-08T22:40:59;18.60;51.50
19258;DHT22;9763;48.780;9.212;2023-10-08T22:45:06;18.50;51.60
19258;DHT22;9763;48.780;9.212;2023-10-08T22:48:56;18.40;51.70
19258;DHT22;9763;48.780;9.212;2023-10-08T22:52:44;18.50;51.70
19258;DHT22;9763;48.780;9.212;2023-10-08T22:56:28;17.50;50.90
19258;DHT22;9763;48.780;9.212;2023-10-08T23:00:13;18.40;51.70
19258;DHT22;9763;48.780;9.212;2023-10-08T23:04:03;18.40;51.90
19258;DHT22;9763;48.780;9.212;2023-10-08T23:07:48;18.30;51.70
19258;DHT22;9763;48.780;9.212;2023-10-08T23:11:33;18.30;51.70
19258;DHT22;9763;48.780;9.212;2023-10-08T23:15:17;18.30;51.80
19258;DHT22;9763;48.780;9.212;2023-10-08T23:19:01;18.30;51.90
19258;DHT22;9763;48.780;9.212;2023-10-08T23:22:45;18.30;51.90
19258;DHT22;9763;48.780;9.212;2023-10-08T23:26:27;18.20;51.90
19258;DHT22;9763;48.780;9.212;2023-10-08T23:30:09;18.20;52.00
19258;DHT22;9763;48.780;9.212;2023-10-08T23:33:53;18.20;52.10
19258;DHT22;9763;48.780;9.212;2023-10-08T23:37:35;18.10;52.30
19258;DHT22;9763;48.780;9.212;2023-10-08T23:41:18;18.10;52.20
19258;DHT22;9763;48.780;9.212;2023-10-08T23:45:00;18.00;52.20
19258;DHT22;9763;48.780;9.212;2023-10-08T23:48:56;18.00;52.30
19258;DHT22;9763;48.780;9.212;2023-10-08T23:52:45;18.00;52.60
19258;DHT22;9763;48.780;9.212;2023-10-08T23:56:28;17.90;52.30
